Nantucket, MA

4:09 AM EST on March 04, 2015 (GMT -0500)
Chatham Municipal | Change Station
CLOSE
Current Station
Airport
Location: Chatham,
Elevation: 66 ft
Nearby Weather Stations
Active Advisory: Winter Storm Watch Active Notice: Public Information Statement

Elev 66 ft 41.69 °N, 69.99 °W | Updated 17 minutes ago

Rain
Rain
38 °F
Feels Like 29 °F
N
15
Wind Variable Wind from SW
Gusts 25 mph

Today
High -- | Low -- °F
--% Chance of Precip.
Yesterday
High -- | Low -- °F
Precip. -- in
6:10 AM 5:34 PM
Waxing Gibbous, 98% visible
Pressure 29.70 in
Visibility 1.2 miles
Clouds Overcast 200 ft
Windchill 29 °F
Dew Point 38 °F
Humidity 100%
Rainfall 0.19 in
Snow Depth Not available.
UV 0 out of 12
Pollen .50 out of 12
Air Quality Not available.
Flu Activity Not available.
METAR KCQX 040852Z AUTO 23013G22KT 1 1/4SM -RA BR OVC002 03/03 A2969 RMK AO2 PK WND 21028/0757 SLP057 P0002 60017 T00330033 56040

More Conditions Fewer Conditions

Pressure 29.70 in
Visibility 1.2 miles
Clouds Overcast 200 ft
Windchill 29 °F
Dew Point 38 °F
Humidity 100%
Rainfall 0.19 in
Snow Depth Not available.
UV 0 out of 12
Pollen .50 out of 12
Air Quality Not available.
Flu Activity Not available.
METAR KCQX 040852Z AUTO 23013G22KT 1 1/4SM -RA BR OVC002 03/03 A2969 RMK AO2 PK WND 21028/0757 SLP057 P0002 60017 T00330033 56040

More Conditions Fewer Conditions

10-Day Weather Forecast

Almanac

Astronomy

Mar. 04, 2015 Rise Set
Actual Time
Civil Twilight
Nautical Twilight
Astronomical Twilight
Moon
Length of Visible Light
Length of Day
Tomorrow will be .
, % of the Moon is Illuminated

Today's Extremes

State Highs State Lows

Community

WunderPhotos

Upload Photos

1,802,418 photos uploaded!

WunderBlogs® & News

Nearby

Air Quality

  Air Quality AQ Index Pollutant
Not available.

Snow Depth

Station Depth Elevation

Earthquake Activity

City Distance Mag. Time & Date
Minimum magnitude displayed is 2.5.

Coastal Water Temperatures

Place Temperature

Nearby Weather Stations

Winter Storm Watch
Statement as of 3:40 AM EST on March 04, 2015

... Winter Storm Watch remains in effect from this evening through
Thursday evening...

* locations... Block Island... Marthas Vineyard... and Nantucket.

* Hazard types... snow and sleet.

* Accumulations... snow accumulation of 4 to 8 inches.

* Timing... snow begins Wednesday night and continues Thursday.

* Impacts... untreated roads will be snow covered and slippery.
Travel will be difficult.

* Visibilities... one quarter to one half mile at times.

Precautionary/preparedness actions...

A Winter Storm Watch is issued for the potential of accumulating
snow of 6 or more inches in a 12 hour period... or 8 or more
inches in a 24 hour period. Anyone traveling in the next 24 to
36 hours should monitor later forecasts and be prepared to modify
travel plans should winter weather develop.



Rlg

For the latest updates... please visit our webpage at
www.Weather.Gov/Boston

You can follow US on facebook at